Observation data for Morton on 10/01/2020      Previous  Date  Next       Current Mesonet Observations  Soil Data  Daily Summary Page  Observations in Plain Language
KMNS 010500Z 14003KT 17/M05 A3019 RMK A01 T01691048  RH  022%=      5-min Rain = 0
KMNS 010505Z 16004KT 17/M05 A3019 RMK A01 T01651046  RH  023%=      5-min Rain = 0
KMNS 010510Z 17005KT 17/M05 A3019 RMK A01 T01681047  RH  023%=      5-min Rain = 0
KMNS 010515Z 18005KT 17/M05 A3019 RMK A01 T01681047  RH  023%=      5-min Rain = 0
KMNS 010520Z 18005KT 16/M05 A3019 RMK A01 T01631045  RH  024%=      5-min Rain = 0
KMNS 010525Z 18005KT 16/M05 A3019 RMK A01 T01641046  RH  024%=      5-min Rain = 0
KMNS 010530Z 18006KT 16/M05 A3019 RMK A01 T01631045  RH  024%=      5-min Rain = 0
KMNS 010535Z 18006KT 15/M04 A3019 RMK A01 T01541042  RH  026%=      5-min Rain = 0
KMNS 010540Z 18007KT 15/M04 A3019 RMK A01 T01531041  RH  026%=      5-min Rain = 0
KMNS 010545Z 19007KT 15/M04 A3019 RMK A01 T01531042  RH  026%=      5-min Rain = 0
KMNS 010550Z 19007KT 15/M04 A3019 RMK A01 T01531043  RH  026%=      5-min Rain = 0
KMNS 010555Z 19008KT 15/M04 A3019 RMK A01 T01541044  RH  025%=      5-min Rain = 0
KMNS 010600Z 20008KT 16/M05 A3019 RMK A01 T01561045  RH  025%=      5-min Rain = 0
KMNS 010605Z 20007KT 15/M05 A3019 RMK A01 T01541045  RH  025%=      5-min Rain = 0
KMNS 010610Z 20006KT 15/M05 A3019 RMK A01 T01541046  RH  025%=      5-min Rain = 0
KMNS 010615Z 19007KT 16/M05 A3019 RMK A01 T01561046  RH  025%=      5-min Rain = 0
KMNS 010620Z 19007KT 15/M05 A3019 RMK A01 T01541045  RH  025%=      5-min Rain = 0
KMNS 010625Z 19007KT 15/M05 A302 RMK A01 T01531045  RH  025%=      5-min Rain = 0
KMNS 010630Z 20008KT 15/M05 A302 RMK A01 T01541045  RH  025%=      5-min Rain = 0
KMNS 010635Z 20007KT 15/M04 A302 RMK A01 T01531044  RH  025%=      5-min Rain = 0
KMNS 010640Z 19007KT 15/M04 A302 RMK A01 T01521043  RH  026%=      5-min Rain = 0
KMNS 010645Z 18007KT 15/M04 A302 RMK A01 T01541042  RH  026%=      5-min Rain = 0
KMNS 010650Z 19007KT 15/M04 A302 RMK A01 T01511041  RH  027%=      5-min Rain = 0
KMNS 010655Z 19007KT 15/M04 A302 RMK A01 T01481040  RH  027%=      5-min Rain = 0
KMNS 010700Z 19007KT 15/M04 A302 RMK A01 T01471039  RH  027%=      5-min Rain = 0
KMNS 010705Z 20008KT 15/M04 A302 RMK A01 T01491039  RH  027%=      5-min Rain = 0
KMNS 010710Z 20008KT 15/M04 A302 RMK A01 T01541038  RH  026%=      5-min Rain = 0
KMNS 010715Z 21008KT 16/M04 A302 RMK A01 T01631041  RH  024%=      5-min Rain = 0
KMNS 010720Z 21008KT 17/M04 A302 RMK A01 T01671042  RH  024%=      5-min Rain = 0
KMNS 010725Z 21008KT 17/M04 A302 RMK A01 T01681043  RH  023%=      5-min Rain = 0
KMNS 010730Z 21007KT 16/M04 A302 RMK A01 T01641044  RH  024%=      5-min Rain = 0
KMNS 010735Z 21007KT 17/M04 A302 RMK A01 T01651044  RH  023%=      5-min Rain = 0
KMNS 010740Z 21007KT 17/M04 A302 RMK A01 T01651044  RH  024%=      5-min Rain = 0
KMNS 010745Z 22006KT 16/M05 A302 RMK A01 T01621045  RH  024%=      5-min Rain = 0
KMNS 010750Z 23006KT 16/M04 A302 RMK A01 T01601044  RH  024%=      5-min Rain = 0
KMNS 010755Z 22005KT 16/M04 A302 RMK A01 T01641044  RH  024%=      5-min Rain = 0
KMNS 010800Z 22004KT 17/M05 A3021 RMK A01 T01661046  RH  023%=      5-min Rain = 0
KMNS 010805Z 22005KT 17/M05 A3021 RMK A01 T01681048  RH  022%=      5-min Rain = 0
KMNS 010810Z 21007KT 17/M05 A3021 RMK A01 T01741050  RH  021%=      5-min Rain = 0
KMNS 010815Z 21007KT 18/M05 A302 RMK A01 T01781051  RH  021%=      5-min Rain = 0
KMNS 010820Z 22007KT 18/M05 A302 RMK A01 T01771051  RH  021%=      5-min Rain = 0
KMNS 010825Z 23006KT 18/M05 A302 RMK A01 T01751051  RH  021%=      5-min Rain = 0
KMNS 010830Z 27003KT 16/M05 A3021 RMK A01 T01611045  RH  024%=      5-min Rain = 0
KMNS 010835Z 27004KT 13/M04 A3021 RMK A01 T01321035  RH  031%=      5-min Rain = 0
KMNS 010840Z 26004KT 13/M04 A3021 RMK A01 T01271035  RH  032%=      5-min Rain = 0
KMNS 010845Z 26003KT 13/M03 A3021 RMK A01 T01291029  RH  033%=      5-min Rain = 0
KMNS 010850Z 26004KT 13/M02 A3021 RMK A01 T01281023  RH  035%=      5-min Rain = 0
KMNS 010855Z 26003KT 13/M02 A3021 RMK A01 T01261022  RH  036%=      5-min Rain = 0
KMNS 010900Z 26003KT 12/M03 A3021 RMK A01 T01181027  RH  036%=      5-min Rain = 0
KMNS 010905Z 28003KT 11/M03 A3021 RMK A01 T01121027  RH  038%=      5-min Rain = 0
KMNS 010910Z 36006KT 10/M04 A3021 RMK A01 T01021041  RH  036%=      5-min Rain = 0
KMNS 010915Z 35004KT 10/M04 A3021 RMK A01 T01011042  RH  036%=      5-min Rain = 0
KMNS 010920Z 35004G10KT 11/M04 A3022 RMK A01 T01061043  RH  035%=      5-min Rain = 0
KMNS 010925Z 02010KT 11/M05 A3022 RMK A01 T01061045  RH  034%=      5-min Rain = 0
KMNS 010930Z 35006KT 12/M05 A3022 RMK A01 T01191045  RH  032%=      5-min Rain = 0
KMNS 010935Z 00008KT 12/M05 A3022 RMK A01 T01221047  RH  030%=      5-min Rain = 0
KMNS 010940Z 01008KT 12/M05 A3022 RMK A01 T01171046  RH  032%=      5-min Rain = 0
KMNS 010945Z 00008KT 12/M05 A3023 RMK A01 T01171045  RH  032%=      5-min Rain = 0
KMNS 010950Z 01008KT 11/M05 A3023 RMK A01 T01121046  RH  033%=      5-min Rain = 0
KMNS 010955Z 01008KT 11/M05 A3023 RMK A01 T01091045  RH  034%=      5-min Rain = 0
KMNS 011000Z 01008KT 10/M05 A3023 RMK A01 T01041047  RH  034%=      5-min Rain = 0
KMNS 011005Z 01008KT 10/M05 A3023 RMK A01 T01021046  RH  035%=      5-min Rain = 0
KMNS 011010Z 02007KT 10/M05 A3024 RMK A01 T01011046  RH  035%=      5-min Rain = 0
KMNS 011015Z 02007KT 10/M04 A3024 RMK A01 T01021042  RH  036%=      5-min Rain = 0
KMNS 011020Z 03007KT 10/M04 A3024 RMK A01 T01031042  RH  036%=      5-min Rain = 0
KMNS 011025Z 02008KT 10/M04 A3024 RMK A01 T01001040  RH  037%=      5-min Rain = 0
KMNS 011030Z 03008KT 10/M04 A3024 RMK A01 T01001038  RH  038%=      5-min Rain = 0
KMNS 011035Z 03007KT 10/M03 A3024 RMK A01 T01001034  RH  039%=      5-min Rain = 0
KMNS 011040Z 03007KT 10/M03 A3024 RMK A01 T00991033  RH  040%=      5-min Rain = 0
KMNS 011045Z 04008KT 10/M03 A3024 RMK A01 T01001029  RH  041%=      5-min Rain = 0
KMNS 011050Z 04007KT 10/M02 A3024 RMK A01 T01031024  RH  041%=      5-min Rain = 0
KMNS 011055Z 04007KT 10/M02 A3025 RMK A01 T01041019  RH  043%=      5-min Rain = 0
KMNS 011100Z 04007KT 11/M02 A3025 RMK A01 T01051015  RH  044%=      5-min Rain = 0
KMNS 011105Z 04008KT 10/M01 A3025 RMK A01 T01021013  RH  045%=      5-min Rain = 0
KMNS 011110Z 04008KT 10/M01 A3025 RMK A01 T01001012  RH  046%=      5-min Rain = 0
KMNS 011115Z 04006KT 10/M01 A3025 RMK A01 T00991009  RH  047%=      5-min Rain = 0
KMNS 011120Z 02004KT 10/M01 A3026 RMK A01 T00961011  RH  048%=      5-min Rain = 0
KMNS 011125Z 01003KT 09/M01 A3026 RMK A01 T00921012  RH  049%=      5-min Rain = 0
KMNS 011130Z 03004KT 09/M01 A3026 RMK A01 T00921010  RH  049%=      5-min Rain = 0
KMNS 011135Z 03004KT 09/M01 A3026 RMK A01 T00911010  RH  049%=      5-min Rain = 0
KMNS 011140Z 03004KT 09/M01 A3026 RMK A01 T00901009  RH  050%=      5-min Rain = 0
KMNS 011145Z 03004KT 09/M01 A3026 RMK A01 T00881009  RH  051%=      5-min Rain = 0
KMNS 011150Z 02005KT 09/M01 A3027 RMK A01 T00871010  RH  051%=      5-min Rain = 0
KMNS 011155Z 03006KT 08/M01 A3027 RMK A01 T00821012  RH  052%=      5-min Rain = 0
KMNS 011200Z 04007KT 08/M01 A3027 RMK A01 T00801006  RH  055%=      5-min Rain = 0
KMNS 011205Z 04008KT 09/00 A3027 RMK A01 T00850002  RH  057%=      5-min Rain = 0
KMNS 011210Z 04007KT 09/01 A3027 RMK A01 T00900008  RH  057%=      5-min Rain = 0
KMNS 011215Z 04007KT 09/01 A3027 RMK A01 T00920010  RH  057%=      5-min Rain = 0
KMNS 011220Z 04007KT 09/01 A3027 RMK A01 T00930014  RH  058%=      5-min Rain = 0
KMNS 011225Z 05008KT 10/02 A3028 RMK A01 T00950016  RH  059%=      5-min Rain = 0
KMNS 011230Z 04008KT 10/02 A3028 RMK A01 T00960018  RH  059%=      5-min Rain = 0
KMNS 011235Z 04007KT 10/02 A3028 RMK A01 T00970019  RH  059%=      5-min Rain = 0
KMNS 011240Z 05008KT 10/02 A3028 RMK A01 T00960019  RH  060%=      5-min Rain = 0
KMNS 011245Z 05009KT 10/02 A3028 RMK A01 T00950021  RH  061%=      5-min Rain = 0
KMNS 011250Z 05009KT 10/02 A3029 RMK A01 T00960023  RH  061%=      5-min Rain = 0
KMNS 011255Z 06008KT 10/03 A3029 RMK A01 T00980026  RH  062%=      5-min Rain = 0
KMNS 011300Z 06008KT 10/03 A3029 RMK A01 T00990028  RH  062%=      5-min Rain = 0
KMNS 011305Z 06008KT 10/03 A3029 RMK A01 T01020030  RH  062%=      5-min Rain = 0
KMNS 011310Z 06008KT 10/03 A3029 RMK A01 T01020030  RH  062%=      5-min Rain = 0
KMNS 011315Z 06007KT 10/03 A3029 RMK A01 T01030031  RH  062%=      5-min Rain = 0
KMNS 011320Z 07007KT 11/03 A3029 RMK A01 T01050032  RH  062%=      5-min Rain = 0
KMNS 011325Z 07007KT 11/03 A3029 RMK A01 T01080033  RH  061%=      5-min Rain = 0
KMNS 011330Z 07007KT 11/03 A303 RMK A01 T01110034  RH  060%=      5-min Rain = 0
KMNS 011335Z 07007KT 12/04 A303 RMK A01 T01150036  RH  060%=      5-min Rain = 0
KMNS 011340Z 06007KT 12/04 A303 RMK A01 T01180037  RH  059%=      5-min Rain = 0
KMNS 011345Z 07008KT 12/04 A303 RMK A01 T01230040  RH  058%=      5-min Rain = 0
KMNS 011350Z 07010KT 13/05 A3031 RMK A01 T01330047  RH  057%=      5-min Rain = 0
KMNS 011355Z 07010G15KT 14/05 A3031 RMK A01 T01400049  RH  055%=      5-min Rain = 0
KMNS 011400Z 07011G17KT 14/05 A3031 RMK A01 T01420049  RH  055%=      5-min Rain = 0
KMNS 011405Z 07011KT 14/05 A3032 RMK A01 T01430048  RH  054%=      5-min Rain = 0
KMNS 011410Z 07013KT 15/05 A3032 RMK A01 T01450048  RH  053%=      5-min Rain = 0
KMNS 011415Z 07013G18KT 15/05 A3032 RMK A01 T01460047  RH  053%=      5-min Rain = 0
KMNS 011420Z 07014KT 15/05 A3032 RMK A01 T01480047  RH  052%=      5-min Rain = 0
KMNS 011425Z 07013G19KT 15/05 A3032 RMK A01 T01500046  RH  051%=      5-min Rain = 0
KMNS 011430Z 07013G18KT 15/05 A3033 RMK A01 T01520045  RH  050%=      5-min Rain = 0
KMNS 011435Z 08013G19KT 15/04 A3033 RMK A01 T01530044  RH  049%=      5-min Rain = 0
KMNS 011440Z 07014KT 16/04 A3033 RMK A01 T01550042  RH  048%=      5-min Rain = 0
KMNS 011445Z 08014G19KT 16/04 A3033 RMK A01 T01570041  RH  047%=      5-min Rain = 0
KMNS 011450Z 08015KT 16/04 A3034 RMK A01 T01590040  RH  046%=      5-min Rain = 0
KMNS 011455Z 07013G18KT 16/04 A3034 RMK A01 T01620040  RH  045%=      5-min Rain = 0
KMNS 011500Z 08014KT 16/04 A3034 RMK A01 T01630038  RH  044%=      5-min Rain = 0
KMNS 011505Z 08013KT 17/04 A3034 RMK A01 T01680038  RH  043%=      5-min Rain = 0
KMNS 011510Z 08014KT 17/04 A3035 RMK A01 T01680036  RH  042%=      5-min Rain = 0
KMNS 011515Z 07015KT 17/04 A3035 RMK A01 T01700035  RH  041%=      5-min Rain = 0
KMNS 011520Z 08014G20KT 18/03 A3035 RMK A01 T01750033  RH  040%=      5-min Rain = 0
KMNS 011525Z 08016KT 18/03 A3035 RMK A01 T01750032  RH  039%=      5-min Rain = 0
KMNS 011530Z 08015KT 18/03 A3035 RMK A01 T01780032  RH  038%=      5-min Rain = 0
KMNS 011535Z 08014KT 18/03 A3036 RMK A01 T01820031  RH  037%=      5-min Rain = 0
KMNS 011540Z 08014G19KT 19/03 A3036 RMK A01 T01850029  RH  036%=      5-min Rain = 0
KMNS 011545Z 07015G20KT 19/03 A3036 RMK A01 T01860029  RH  036%=      5-min Rain = 0
KMNS 011550Z 08015KT 19/03 A3036 RMK A01 T01870028  RH  035%=      5-min Rain = 0
KMNS 011555Z 08014KT 19/03 A3036 RMK A01 T01900028  RH  035%=      5-min Rain = 0
KMNS 011600Z 09014KT 19/03 A3036 RMK A01 T01940028  RH  034%=      5-min Rain = 0
KMNS 011605Z 08013KT 20/03 A3036 RMK A01 T01980028  RH  033%=      5-min Rain = 0
KMNS 011610Z 08015KT 20/03 A3036 RMK A01 T01960026  RH  033%=      5-min Rain = 0
KMNS 011615Z 09015KT 20/03 A3036 RMK A01 T01970026  RH  032%=      5-min Rain = 0
KMNS 011620Z 09014G20KT 20/03 A3037 RMK A01 T02010026  RH  032%=      5-min Rain = 0
KMNS 011625Z 09016G22KT 20/02 A3036 RMK A01 T02000024  RH  032%=      5-min Rain = 0
KMNS 011630Z 09016KT 20/02 A3037 RMK A01 T02030023  RH  031%=      5-min Rain = 0
KMNS 011635Z 08014KT 21/02 A3037 RMK A01 T02070024  RH  030%=      5-min Rain = 0
KMNS 011640Z 09015G21KT 21/02 A3037 RMK A01 T02130021  RH  029%=      5-min Rain = 0
KMNS 011645Z 09016KT 21/02 A3037 RMK A01 T02120018  RH  028%=      5-min Rain = 0
KMNS 011650Z 09016G21KT 21/02 A3037 RMK A01 T02140017  RH  027%=      5-min Rain = 0
KMNS 011655Z 09016G21KT 22/02 A3037 RMK A01 T02180017  RH  027%=      5-min Rain = 0
KMNS 011700Z 08013KT 22/02 A3037 RMK A01 T02200018  RH  027%=      5-min Rain = 0
KMNS 011705Z 09015KT 22/02 A3037 RMK A01 T02210016  RH  026%=      5-min Rain = 0
KMNS 011710Z 10016G21KT 22/02 A3037 RMK A01 T02220015  RH  026%=      5-min Rain = 0
KMNS 011715Z 09017KT 22/01 A3037 RMK A01 T02220014  RH  026%=      5-min Rain = 0
KMNS 011720Z 09017G22KT 23/02 A3037 RMK A01 T02250015  RH  025%=      5-min Rain = 0
KMNS 011725Z 08015G21KT 23/02 A3037 RMK A01 T02270016  RH  025%=      5-min Rain = 0
KMNS 011730Z 09016KT 23/01 A3036 RMK A01 T02280014  RH  025%=      5-min Rain = 0
KMNS 011735Z 08015G20KT 23/02 A3036 RMK A01 T02310017  RH  025%=      5-min Rain = 0
KMNS 011740Z 09016G21KT 23/02 A3036 RMK A01 T02310015  RH  024%=      5-min Rain = 0
KMNS 011745Z 10016G22KT 23/01 A3036 RMK A01 T02340014  RH  024%=      5-min Rain = 0
KMNS 011750Z 10016G21KT 23/01 A3036 RMK A01 T02330013  RH  024%=      5-min Rain = 0
KMNS 011755Z 09015G20KT 24/01 A3036 RMK A01 T02350011  RH  023%=      5-min Rain = 0
KMNS 011800Z 09014KT 24/01 A3036 RMK A01 T02390013  RH  023%=      5-min Rain = 0
KMNS 011805Z 09015G21KT 24/01 A3036 RMK A01 T02380012  RH  023%=      5-min Rain = 0
KMNS 011810Z 09016KT 24/01 A3036 RMK A01 T02390011  RH  023%=      5-min Rain = 0
KMNS 011815Z 09017G23KT 24/01 A3036 RMK A01 T02400011  RH  022%=      5-min Rain = 0
KMNS 011820Z 10016G21KT 24/01 A3036 RMK A01 T02380012  RH  023%=      5-min Rain = 0
KMNS 011825Z 10015G22KT 24/01 A3036 RMK A01 T02430013  RH  022%=      5-min Rain = 0
KMNS 011830Z 09015G21KT 24/01 A3036 RMK A01 T02430011  RH  022%=      5-min Rain = 0
KMNS 011835Z 09015G21KT 24/01 A3036 RMK A01 T02440012  RH  022%=      5-min Rain = 0
KMNS 011840Z 09014G20KT 25/01 A3035 RMK A01 T02450012  RH  022%=      5-min Rain = 0
KMNS 011845Z 10014G20KT 25/01 A3035 RMK A01 T02480013  RH  022%=      5-min Rain = 0
KMNS 011850Z 09014G20KT 25/01 A3035 RMK A01 T02540014  RH  021%=      5-min Rain = 0
KMNS 011855Z 09016KT 25/01 A3035 RMK A01 T02480010  RH  021%=      5-min Rain = 0
KMNS 011900Z 10015G20KT 25/01 A3034 RMK A01 T02480010  RH  021%=      5-min Rain = 0
KMNS 011905Z 10015KT 25/01 A3034 RMK A01 T02530008  RH  020%=      5-min Rain = 0
KMNS 011910Z 10016G21KT 25/01 A3034 RMK A01 T02520007  RH  020%=      5-min Rain = 0
KMNS 011915Z 10014G20KT 25/01 A3034 RMK A01 T02510006  RH  020%=      5-min Rain = 0
KMNS 011920Z 08015G22KT 25/01 A3034 RMK A01 T02510005  RH  020%=      5-min Rain = 0
KMNS 011925Z 09015G22KT 25/00 A3033 RMK A01 T02540004  RH  020%=      5-min Rain = 0
KMNS 011930Z 10014G21KT 25/00 A3033 RMK A01 T02540001  RH  019%=      5-min Rain = 0
KMNS 011935Z 08014G19KT 25/00 A3033 RMK A01 T02530002  RH  020%=      5-min Rain = 0
KMNS 011940Z 10012G20KT 26/M00 A3033 RMK A01 T02591001  RH  018%=      5-min Rain = 0
KMNS 011945Z 10013G18KT 26/M00 A3032 RMK A01 T02591003  RH  018%=      5-min Rain = 0
KMNS 011950Z 10014G19KT 26/M00 A3032 RMK A01 T02551004  RH  018%=      5-min Rain = 0
KMNS 011955Z 10014G20KT 25/M01 A3032 RMK A01 T02541005  RH  018%=      5-min Rain = 0
KMNS 012000Z 11014KT 25/M00 A3031 RMK A01 T02541004  RH  019%=      5-min Rain = 0
KMNS 012005Z 10015KT 26/M01 A3031 RMK A01 T02551006  RH  018%=      5-min Rain = 0
KMNS 012010Z 09015G21KT 26/M01 A3031 RMK A01 T02551008  RH  018%=      5-min Rain = 0
KMNS 012015Z 11014G21KT 26/M01 A3031 RMK A01 T02561010  RH  017%=      5-min Rain = 0
KMNS 012020Z 10015G20KT 26/M01 A3031 RMK A01 T02571011  RH  017%=      5-min Rain = 0
KMNS 012025Z 11012G19KT 26/M01 A303 RMK A01 T02581011  RH  017%=      5-min Rain = 0
KMNS 012030Z 09012G17KT 26/M01 A303 RMK A01 T02571012  RH  017%=      5-min Rain = 0
KMNS 012035Z 10012G17KT 27/M01 A303 RMK A01 T02651014  RH  016%=      5-min Rain = 0
KMNS 012040Z 09014G19KT 26/M01 A303 RMK A01 T02601014  RH  017%=      5-min Rain = 0
KMNS 012045Z 08015G20KT 26/M02 A303 RMK A01 T02581015  RH  017%=      5-min Rain = 0
KMNS 012050Z 10014G19KT 26/M02 A303 RMK A01 T02571016  RH  017%=      5-min Rain = 0
KMNS 012055Z 10014G21KT 26/M02 A303 RMK A01 T02591018  RH  016%=      5-min Rain = 0
KMNS 012100Z 10012KT 26/M02 A303 RMK A01 T02601019  RH  016%=      5-min Rain = 0
KMNS 012105Z 08011G17KT 26/M02 A303 RMK A01 T02571017  RH  017%=      5-min Rain = 0
KMNS 012110Z 09013G19KT 26/M02 A3029 RMK A01 T02591018  RH  016%=      5-min Rain = 0
KMNS 012115Z 11013G19KT 26/M02 A3029 RMK A01 T02561019  RH  016%=      5-min Rain = 0
KMNS 012120Z 10012G17KT 26/M02 A3029 RMK A01 T02591020  RH  016%=      5-min Rain = 0
KMNS 012125Z 10011G16KT 26/M02 A3029 RMK A01 T02561020  RH  016%=      5-min Rain = 0
KMNS 012130Z 10012G18KT 26/M02 A3029 RMK A01 T02561020  RH  016%=      5-min Rain = 0
KMNS 012135Z 10014G20KT 26/M02 A3029 RMK A01 T02571021  RH  016%=      5-min Rain = 0
KMNS 012140Z 10013G18KT 26/M02 A3029 RMK A01 T02551021  RH  016%=      5-min Rain = 0
KMNS 012145Z 11011G16KT 26/M02 A3029 RMK A01 T02591021  RH  016%=      5-min Rain = 0
KMNS 012150Z 09012KT 26/M02 A3028 RMK A01 T02551021  RH  016%=      5-min Rain = 0
KMNS 012155Z 10012G18KT 26/M02 A3028 RMK A01 T02561021  RH  016%=      5-min Rain = 0
KMNS 012200Z 10011G16KT 26/M02 A3028 RMK A01 T02561021  RH  016%=      5-min Rain = 0
KMNS 012205Z 10012KT 26/M02 A3028 RMK A01 T02551021  RH  016%=      5-min Rain = 0
KMNS 012210Z 11011G16KT 26/M02 A3028 RMK A01 T02551021  RH  016%=      5-min Rain = 0
KMNS 012215Z 10011G16KT 26/M02 A3028 RMK A01 T02551022  RH  016%=      5-min Rain = 0
KMNS 012220Z 10012G17KT 25/M02 A3028 RMK A01 T02521022  RH  016%=      5-min Rain = 0
KMNS 012225Z 11012KT 25/M02 A3028 RMK A01 T02521021  RH  016%=      5-min Rain = 0
KMNS 012230Z 10011G17KT 25/M02 A3028 RMK A01 T02521022  RH  016%=      5-min Rain = 0
KMNS 012235Z 10013G18KT 25/M02 A3028 RMK A01 T02541022  RH  016%=      5-min Rain = 0
KMNS 012240Z 09014KT 25/M02 A3028 RMK A01 T02511023  RH  016%=      5-min Rain = 0
KMNS 012245Z 09011KT 25/M02 A3028 RMK A01 T02491022  RH  017%=      5-min Rain = 0
KMNS 012250Z 10011G16KT 25/M02 A3028 RMK A01 T02511024  RH  016%=      5-min Rain = 0
KMNS 012255Z 11012G17KT 25/M02 A3028 RMK A01 T02481024  RH  017%=      5-min Rain = 0
KMNS 012300Z 11011KT 25/M02 A3028 RMK A01 T02491023  RH  017%=      5-min Rain = 0
KMNS 012305Z 10009KT 25/M02 A3028 RMK A01 T02481023  RH  017%=      5-min Rain = 0
KMNS 012310Z 12013KT 25/M02 A3028 RMK A01 T02481023  RH  017%=      5-min Rain = 0
KMNS 012315Z 11012KT 24/M02 A3028 RMK A01 T02431023  RH  017%=      5-min Rain = 0
KMNS 012320Z 11012KT 24/M02 A3028 RMK A01 T02431023  RH  017%=      5-min Rain = 0
KMNS 012325Z 12013KT 24/M02 A3028 RMK A01 T02421023  RH  017%=      5-min Rain = 0
KMNS 012330Z 11010KT 24/M02 A3028 RMK A01 T02411023  RH  017%=      5-min Rain = 0
KMNS 012335Z 11011KT 24/M02 A3028 RMK A01 T02401023  RH  017%=      5-min Rain = 0
KMNS 012340Z 12009G16KT 24/M02 A3028 RMK A01 T02411022  RH  017%=      5-min Rain = 0
KMNS 012345Z 12012KT 24/M02 A3028 RMK A01 T02381024  RH  017%=      5-min Rain = 0
KMNS 012350Z 12013KT 24/M02 A3028 RMK A01 T02361024  RH  018%=      5-min Rain = 0
KMNS 012355Z 11012KT 23/M02 A3028 RMK A01 T02331024  RH  018%=      5-min Rain = 0
KMNS 020000Z 11011KT 23/M02 A3028 RMK A01 T02321023  RH  018%=      5-min Rain = 0
KMNS 020005Z 11011KT 23/M02 A3029 RMK A01 T02291023  RH  019%=      5-min Rain = 0
KMNS 020010Z 11012KT 23/M02 A3029 RMK A01 T02261022  RH  019%=      5-min Rain = 0
KMNS 020015Z 11010KT 22/M02 A3029 RMK A01 T02231023  RH  019%=      5-min Rain = 0
KMNS 020020Z 10011KT 22/M02 A3029 RMK A01 T02211023  RH  020%=      5-min Rain = 0
KMNS 020025Z 11009KT 22/M02 A3029 RMK A01 T02171022  RH  020%=      5-min Rain = 0
KMNS 020030Z 11008KT 21/M02 A3029 RMK A01 T02131021  RH  021%=      5-min Rain = 0
KMNS 020035Z 11009KT 21/M02 A3029 RMK A01 T02091021  RH  021%=      5-min Rain = 0
KMNS 020040Z 11009KT 21/M02 A3029 RMK A01 T02071021  RH  022%=      5-min Rain = 0
KMNS 020045Z 11008KT 20/M02 A3029 RMK A01 T02041021  RH  022%=      5-min Rain = 0
KMNS 020050Z 11008KT 20/M02 A3029 RMK A01 T01991021  RH  023%=      5-min Rain = 0
KMNS 020055Z 11008KT 20/M02 A3029 RMK A01 T01951020  RH  023%=      5-min Rain = 0
KMNS 020100Z 11009KT 19/M02 A3029 RMK A01 T01941020  RH  024%=      5-min Rain = 0
KMNS 020105Z 11008KT 19/M02 A3029 RMK A01 T01941019  RH  024%=      5-min Rain = 0
KMNS 020110Z 11009KT 19/M02 A3029 RMK A01 T01911019  RH  024%=      5-min Rain = 0
KMNS 020115Z 11009KT 19/M02 A3029 RMK A01 T01891019  RH  025%=      5-min Rain = 0
KMNS 020120Z 11009KT 19/M02 A3029 RMK A01 T01871018  RH  025%=      5-min Rain = 0
KMNS 020125Z 11009KT 18/M02 A3029 RMK A01 T01841017  RH  026%=      5-min Rain = 0
KMNS 020130Z 11009KT 18/M02 A3029 RMK A01 T01821017  RH  026%=      5-min Rain = 0
KMNS 020135Z 11008KT 18/M02 A303 RMK A01 T01801017  RH  026%=      5-min Rain = 0
KMNS 020140Z 11009KT 18/M02 A303 RMK A01 T01801017  RH  026%=      5-min Rain = 0
KMNS 020145Z 10009KT 18/M02 A303 RMK A01 T01781017  RH  027%=      5-min Rain = 0
KMNS 020150Z 10008KT 17/M02 A303 RMK A01 T01741017  RH  027%=      5-min Rain = 0
KMNS 020155Z 11008KT 17/M02 A303 RMK A01 T01721018  RH  028%=      5-min Rain = 0
KMNS 020200Z 10008KT 17/M02 A3031 RMK A01 T01691019  RH  028%=      5-min Rain = 0
KMNS 020205Z 10008KT 17/M02 A3031 RMK A01 T01671019  RH  028%=      5-min Rain = 0
KMNS 020210Z 11008KT 17/M02 A3031 RMK A01 T01651019  RH  029%=      5-min Rain = 0
KMNS 020215Z 11008KT 16/M02 A3031 RMK A01 T01641018  RH  029%=      5-min Rain = 0
KMNS 020220Z 10008KT 16/M02 A3031 RMK A01 T01621019  RH  029%=      5-min Rain = 0
KMNS 020225Z 10007KT 16/M02 A3031 RMK A01 T01571019  RH  030%=      5-min Rain = 0
KMNS 020230Z 10007KT 15/M02 A3031 RMK A01 T01541017  RH  031%=      5-min Rain = 0
KMNS 020235Z 10007KT 15/M02 A3032 RMK A01 T01521017  RH  032%=      5-min Rain = 0
KMNS 020240Z 10008KT 15/M02 A3032 RMK A01 T01511017  RH  032%=      5-min Rain = 0
KMNS 020245Z 10007KT 15/M02 A3032 RMK A01 T01511017  RH  032%=      5-min Rain = 0
KMNS 020250Z 08007KT 15/M02 A3032 RMK A01 T01491016  RH  032%=      5-min Rain = 0
KMNS 020255Z 08006KT 14/M01 A3032 RMK A01 T01401012  RH  035%=      5-min Rain = 0
KMNS 020300Z 09007KT 14/M01 A3032 RMK A01 T01371012  RH  036%=      5-min Rain = 0
KMNS 020305Z 09007KT 14/M01 A3032 RMK A01 T01381014  RH  035%=      5-min Rain = 0
KMNS 020310Z 08006KT 13/M01 A3032 RMK A01 T01331012  RH  037%=      5-min Rain = 0
KMNS 020315Z 09007KT 13/M01 A3033 RMK A01 T01311014  RH  037%=      5-min Rain = 0
KMNS 020320Z 09006KT 13/M02 A3033 RMK A01 T01331015  RH  036%=      5-min Rain = 0
KMNS 020325Z 09006KT 13/M02 A3033 RMK A01 T01291015  RH  037%=      5-min Rain = 0
KMNS 020330Z 10007KT 13/M02 A3033 RMK A01 T01301015  RH  037%=      5-min Rain = 0
KMNS 020335Z 11007KT 13/M02 A3032 RMK A01 T01291016  RH  037%=      5-min Rain = 0
KMNS 020340Z 10006KT 13/M02 A3033 RMK A01 T01281017  RH  037%=      5-min Rain = 0
KMNS 020345Z 10006KT 13/M02 A3033 RMK A01 T01281019  RH  036%=      5-min Rain = 0
KMNS 020350Z 10006KT 13/M02 A3033 RMK A01 T01281017  RH  037%=      5-min Rain = 0
KMNS 020355Z 10006KT 13/M02 A3033 RMK A01 T01271018  RH  037%=      5-min Rain = 0
KMNS 020400Z 10006KT 12/M02 A3033 RMK A01 T01241018  RH  038%=      5-min Rain = 0
KMNS 020405Z 10006KT 12/M02 A3033 RMK A01 T01231018  RH  038%=      5-min Rain = 0
KMNS 020410Z 10006KT 12/M02 A3033 RMK A01 T01241017  RH  038%=      5-min Rain = 0
KMNS 020415Z 10007KT 12/M02 A3033 RMK A01 T01241017  RH  038%=      5-min Rain = 0
KMNS 020420Z 10006KT 12/M02 A3033 RMK A01 T01241016  RH  038%=      5-min Rain = 0
KMNS 020425Z 10006KT 12/M02 A3033 RMK A01 T01231016  RH  038%=      5-min Rain = 0
KMNS 020430Z 10007KT 12/M02 A3033 RMK A01 T01241016  RH  038%=      5-min Rain = 0
KMNS 020435Z 10006KT 12/M02 A3033 RMK A01 T01231016  RH  038%=      5-min Rain = 0
KMNS 020440Z 10006KT 12/M02 A3033 RMK A01 T01201017  RH  039%=      5-min Rain = 0
KMNS 020445Z 09006KT 12/M02 A3034 RMK A01 T01161017  RH  040%=      5-min Rain = 0
KMNS 020450Z 10006KT 12/M02 A3033 RMK A01 T01151017  RH  040%=      5-min Rain = 0
KMNS 020455Z 09006KT 12/M02 A3033 RMK A01 T01151017  RH  040%=      5-min Rain = 0

Page generated in 0.0094 seconds.